sensor_id;sensor_type;location;lat;lon;timestamp;pressure;altitude;pressure_sealevel;temperature;humidity
49843;BME280;55559;48.898;9.184;2022-07-03T00:02:05;98575.25;;;18.37;100.00
49843;BME280;55559;48.898;9.184;2022-07-03T00:04:33;98569.94;;;18.29;100.00
49843;BME280;55559;48.898;9.184;2022-07-03T00:07:01;98579.34;;;18.33;100.00
49843;BME280;55559;48.898;9.184;2022-07-03T00:09:28;98578.84;;;18.30;100.00
49843;BME280;55559;48.898;9.184;2022-07-03T00:11:56;98570.47;;;18.25;100.00
49843;BME280;55559;48.898;9.184;2022-07-03T00:14:24;98575.75;;;18.18;100.00
49843;BME280;55559;48.898;9.184;2022-07-03T00:16:51;98578.84;;;18.15;100.00
49843;BME280;55559;48.898;9.184;2022-07-03T00:19:18;98574.63;;;18.12;100.00
49843;BME280;55559;48.898;9.184;2022-07-03T00:21:52;98585.22;;;18.14;100.00
49843;BME280;55559;48.898;9.184;2022-07-03T00:24:24;98582.72;;;18.12;100.00
49843;BME280;55559;48.898;9.184;2022-07-03T00:26:52;98589.13;;;18.11;100.00
49843;BME280;55559;48.898;9.184;2022-07-03T00:29:21;98584.47;;;18.05;100.00
49843;BME280;55559;48.898;9.184;2022-07-03T00:31:49;98587.88;;;17.99;100.00
49843;BME280;55559;48.898;9.184;2022-07-03T00:34:17;98583.53;;;17.98;100.00
49843;BME280;55559;48.898;9.184;2022-07-03T00:36:47;98578.50;;;17.95;100.00
49843;BME280;55559;48.898;9.184;2022-07-03T00:39:15;98576.00;;;17.93;100.00
49843;BME280;55559;48.898;9.184;2022-07-03T00:41:44;98578.97;;;17.98;100.00
49843;BME280;55559;48.898;9.184;2022-07-03T00:44:13;98579.50;;;17.94;100.00
49843;BME280;55559;48.898;9.184;2022-07-03T00:46:41;98579.22;;;17.89;100.00
49843;BME280;55559;48.898;9.184;2022-07-03T00:49:09;98580.91;;;17.90;100.00
49843;BME280;55559;48.898;9.184;2022-07-03T00:51:39;98581.28;;;17.78;100.00
49843;BME280;55559;48.898;9.184;2022-07-03T00:54:09;98586.91;;;17.69;100.00
49843;BME280;55559;48.898;9.184;2022-07-03T00:56:38;98578.06;;;17.60;100.00
49843;BME280;55559;48.898;9.184;2022-07-03T00:59:06;98592.09;;;17.70;100.00
49843;BME280;55559;48.898;9.184;2022-07-03T01:01:35;98587.34;;;17.57;100.00
49843;BME280;55559;48.898;9.184;2022-07-03T01:04:13;98595.56;;;17.56;100.00
49843;BME280;55559;48.898;9.184;2022-07-03T01:06:52;98596.16;;;17.43;100.00
49843;BME280;55559;48.898;9.184;2022-07-03T01:09:33;98597.88;;;17.36;100.00
49843;BME280;55559;48.898;9.184;2022-07-03T01:12:05;98596.03;;;17.36;100.00
49843;BME280;55559;48.898;9.184;2022-07-03T01:14:43;98592.84;;;17.33;100.00
49843;BME280;55559;48.898;9.184;2022-07-03T01:17:21;98611.06;;;17.22;100.00
49843;BME280;55559;48.898;9.184;2022-07-03T01:19:56;98603.47;;;17.26;100.00
49843;BME280;55559;48.898;9.184;2022-07-03T01:22:32;98594.44;;;17.19;100.00
49843;BME280;55559;48.898;9.184;2022-07-03T01:25:14;98585.97;;;17.30;100.00
49843;BME280;55559;48.898;9.184;2022-07-03T01:27:55;98578.31;;;17.19;100.00
49843;BME280;55559;48.898;9.184;2022-07-03T01:30:24;98580.97;;;17.27;100.00
49843;BME280;55559;48.898;9.184;2022-07-03T01:32:58;98579.19;;;17.11;100.00
49843;BME280;55559;48.898;9.184;2022-07-03T01:35:33;98583.44;;;17.05;100.00
49843;BME280;55559;48.898;9.184;2022-07-03T01:38:03;98579.44;;;16.93;100.00
49843;BME280;55559;48.898;9.184;2022-07-03T01:40:33;98577.47;;;16.79;100.00
49843;BME280;55559;48.898;9.184;2022-07-03T01:43:05;98589.59;;;16.66;100.00
49843;BME280;55559;48.898;9.184;2022-07-03T01:45:36;98583.22;;;16.59;100.00
49843;BME280;55559;48.898;9.184;2022-07-03T01:48:05;98571.31;;;16.53;100.00
49843;BME280;55559;48.898;9.184;2022-07-03T01:50:34;98577.19;;;16.49;100.00
49843;BME280;55559;48.898;9.184;2022-07-03T01:53:06;98578.41;;;16.46;100.00
49843;BME280;55559;48.898;9.184;2022-07-03T01:55:34;98578.91;;;16.42;100.00
49843;BME280;55559;48.898;9.184;2022-07-03T01:58:06;98583.63;;;16.40;100.00
49843;BME280;55559;48.898;9.184;2022-07-03T02:00:41;98576.56;;;16.30;100.00
49843;BME280;55559;48.898;9.184;2022-07-03T02:03:08;98578.59;;;16.28;100.00
49843;BME280;55559;48.898;9.184;2022-07-03T02:05:42;98579.09;;;16.24;100.00
49843;BME280;55559;48.898;9.184;2022-07-03T02:08:37;98570.88;;;16.17;100.00
49843;BME280;55559;48.898;9.184;2022-07-03T02:11:13;98573.56;;;16.17;100.00
49843;BME280;55559;48.898;9.184;2022-07-03T02:13:51;98570.56;;;16.12;100.00
49843;BME280;55559;48.898;9.184;2022-07-03T02:16:21;98572.75;;;16.08;100.00
49843;BME280;55559;48.898;9.184;2022-07-03T02:18:56;98574.28;;;16.11;100.00
49843;BME280;55559;48.898;9.184;2022-07-03T02:21:27;98569.22;;;16.16;100.00
49843;BME280;55559;48.898;9.184;2022-07-03T02:24:04;98558.66;;;16.14;100.00
49843;BME280;55559;48.898;9.184;2022-07-03T02:26:38;98565.53;;;16.17;100.00
49843;BME280;55559;48.898;9.184;2022-07-03T02:29:12;98569.72;;;16.20;100.00
49843;BME280;55559;48.898;9.184;2022-07-03T02:31:43;98572.56;;;16.26;100.00
49843;BME280;55559;48.898;9.184;2022-07-03T02:34:13;98569.06;;;16.26;100.00
49843;BME280;55559;48.898;9.184;2022-07-03T02:36:45;98566.88;;;16.29;100.00
49843;BME280;55559;48.898;9.184;2022-07-03T02:39:18;98567.03;;;16.36;100.00
49843;BME280;55559;48.898;9.184;2022-07-03T02:41:53;98565.50;;;16.42;100.00
49843;BME280;55559;48.898;9.184;2022-07-03T02:44:34;98572.19;;;16.46;100.00
49843;BME280;55559;48.898;9.184;2022-07-03T02:47:10;98571.34;;;16.45;100.00
49843;BME280;55559;48.898;9.184;2022-07-03T02:49:50;98567.13;;;16.51;100.00
49843;BME280;55559;48.898;9.184;2022-07-03T02:52:42;98567.50;;;16.40;100.00
49843;BME280;55559;48.898;9.184;2022-07-03T02:55:26;98572.03;;;16.39;100.00
49843;BME280;55559;48.898;9.184;2022-07-03T02:58:05;98572.56;;;16.34;100.00
49843;BME280;55559;48.898;9.184;2022-07-03T03:00:39;98568.84;;;16.35;100.00
49843;BME280;55559;48.898;9.184;2022-07-03T03:03:09;98569.88;;;16.26;100.00
49843;BME280;55559;48.898;9.184;2022-07-03T03:05:41;98573.91;;;16.22;100.00
49843;BME280;55559;48.898;9.184;2022-07-03T03:08:16;98580.28;;;16.21;100.00
49843;BME280;55559;48.898;9.184;2022-07-03T03:10:45;98579.97;;;16.16;100.00
49843;BME280;55559;48.898;9.184;2022-07-03T03:13:14;98578.09;;;16.33;100.00
49843;BME280;55559;48.898;9.184;2022-07-03T03:15:57;98575.09;;;16.20;100.00
49843;BME280;55559;48.898;9.184;2022-07-03T03:18:28;98588.50;;;16.20;100.00
49843;BME280;55559;48.898;9.184;2022-07-03T03:20:59;98588.00;;;16.16;100.00
49843;BME280;55559;48.898;9.184;2022-07-03T03:23:35;98587.34;;;16.14;100.00
49843;BME280;55559;48.898;9.184;2022-07-03T03:26:07;98601.44;;;16.08;100.00
49843;BME280;55559;48.898;9.184;2022-07-03T03:28:35;98591.53;;;16.08;100.00
49843;BME280;55559;48.898;9.184;2022-07-03T03:31:04;98595.03;;;16.17;100.00
49843;BME280;55559;48.898;9.184;2022-07-03T03:33:37;98598.41;;;16.19;100.00
49843;BME280;55559;48.898;9.184;2022-07-03T03:36:07;98586.66;;;16.12;100.00
49843;BME280;55559;48.898;9.184;2022-07-03T03:38:35;98595.91;;;16.17;100.00
49843;BME280;55559;48.898;9.184;2022-07-03T03:41:03;98595.19;;;16.15;100.00
49843;BME280;55559;48.898;9.184;2022-07-03T03:43:30;98600.56;;;16.15;100.00
49843;BME280;55559;48.898;9.184;2022-07-03T03:45:59;98597.56;;;16.18;100.00
49843;BME280;55559;48.898;9.184;2022-07-03T03:48:29;98596.72;;;16.18;100.00
49843;BME280;55559;48.898;9.184;2022-07-03T03:50:57;98604.44;;;16.13;100.00
49843;BME280;55559;48.898;9.184;2022-07-03T03:53:26;98610.47;;;16.07;100.00
49843;BME280;55559;48.898;9.184;2022-07-03T03:55:58;98612.31;;;16.06;100.00
49843;BME280;55559;48.898;9.184;2022-07-03T03:58:26;98614.66;;;16.01;100.00
49843;BME280;55559;48.898;9.184;2022-07-03T04:00:55;98615.84;;;15.90;100.00
49843;BME280;55559;48.898;9.184;2022-07-03T04:03:23;98614.78;;;15.75;100.00
49843;BME280;55559;48.898;9.184;2022-07-03T04:05:52;98608.75;;;15.65;100.00
49843;BME280;55559;48.898;9.184;2022-07-03T04:08:21;98609.75;;;15.63;100.00
49843;BME280;55559;48.898;9.184;2022-07-03T04:10:49;98603.69;;;15.61;100.00
49843;BME280;55559;48.898;9.184;2022-07-03T04:13:17;98606.38;;;15.61;100.00
49843;BME280;55559;48.898;9.184;2022-07-03T04:15:45;98609.41;;;15.67;100.00
49843;BME280;55559;48.898;9.184;2022-07-03T04:18:13;98610.09;;;15.69;100.00
49843;BME280;55559;48.898;9.184;2022-07-03T04:20:41;98613.13;;;15.74;100.00
49843;BME280;55559;48.898;9.184;2022-07-03T04:23:10;98613.13;;;15.74;100.00
49843;BME280;55559;48.898;9.184;2022-07-03T04:25:38;98619.31;;;15.74;100.00
49843;BME280;55559;48.898;9.184;2022-07-03T04:28:05;98618.84;;;15.79;100.00
49843;BME280;55559;48.898;9.184;2022-07-03T04:30:33;98618.53;;;15.82;100.00
49843;BME280;55559;48.898;9.184;2022-07-03T04:33:00;98617.34;;;15.85;100.00
49843;BME280;55559;48.898;9.184;2022-07-03T04:35:28;98622.53;;;15.94;100.00
49843;BME280;55559;48.898;9.184;2022-07-03T04:37:55;98623.72;;;16.00;100.00
49843;BME280;55559;48.898;9.184;2022-07-03T04:40:24;98634.59;;;16.07;100.00
49843;BME280;55559;48.898;9.184;2022-07-03T04:42:52;98634.94;;;16.12;100.00
49843;BME280;55559;48.898;9.184;2022-07-03T04:45:20;98638.28;;;16.22;100.00
49843;BME280;55559;48.898;9.184;2022-07-03T04:47:47;98647.03;;;16.24;100.00
49843;BME280;55559;48.898;9.184;2022-07-03T04:50:14;98642.16;;;16.28;100.00
49843;BME280;55559;48.898;9.184;2022-07-03T04:52:42;98645.19;;;16.41;100.00
49843;BME280;55559;48.898;9.184;2022-07-03T04:55:09;98640.78;;;16.48;100.00
49843;BME280;55559;48.898;9.184;2022-07-03T04:57:39;98647.31;;;16.54;100.00
49843;BME280;55559;48.898;9.184;2022-07-03T05:00:08;98649.97;;;16.70;100.00
49843;BME280;55559;48.898;9.184;2022-07-03T05:02:35;98641.25;;;16.85;100.00
49843;BME280;55559;48.898;9.184;2022-07-03T05:05:03;98645.94;;;16.91;100.00
49843;BME280;55559;48.898;9.184;2022-07-03T05:07:31;98648.59;;;16.99;100.00
49843;BME280;55559;48.898;9.184;2022-07-03T05:09:58;98643.50;;;17.13;100.00
49843;BME280;55559;48.898;9.184;2022-07-03T05:12:26;98642.78;;;17.27;100.00
49843;BME280;55559;48.898;9.184;2022-07-03T05:14:55;98651.47;;;17.37;100.00
49843;BME280;55559;48.898;9.184;2022-07-03T05:17:22;98648.41;;;17.40;100.00
49843;BME280;55559;48.898;9.184;2022-07-03T05:19:50;98649.88;;;17.51;100.00
49843;BME280;55559;48.898;9.184;2022-07-03T05:22:38;98646.97;;;17.61;100.00
49843;BME280;55559;48.898;9.184;2022-07-03T05:25:07;98655.34;;;17.66;100.00
49843;BME280;55559;48.898;9.184;2022-07-03T05:27:35;98655.47;;;17.73;100.00
49843;BME280;55559;48.898;9.184;2022-07-03T05:30:05;98650.56;;;17.76;100.00
49843;BME280;55559;48.898;9.184;2022-07-03T05:32:33;98645.31;;;17.83;100.00
49843;BME280;55559;48.898;9.184;2022-07-03T05:35:00;98641.09;;;17.89;100.00
49843;BME280;55559;48.898;9.184;2022-07-03T05:37:28;98640.03;;;17.98;100.00
49843;BME280;55559;48.898;9.184;2022-07-03T05:39:56;98642.97;;;18.11;100.00
49843;BME280;55559;48.898;9.184;2022-07-03T05:42:23;98641.13;;;18.27;100.00
49843;BME280;55559;48.898;9.184;2022-07-03T05:44:50;98639.09;;;18.29;100.00
49843;BME280;55559;48.898;9.184;2022-07-03T05:47:19;98652.31;;;18.38;100.00
49843;BME280;55559;48.898;9.184;2022-07-03T05:49:47;98646.47;;;18.50;100.00
49843;BME280;55559;48.898;9.184;2022-07-03T05:52:14;98646.75;;;18.55;100.00
49843;BME280;55559;48.898;9.184;2022-07-03T05:54:42;98643.44;;;18.68;100.00
49843;BME280;55559;48.898;9.184;2022-07-03T05:57:10;98643.81;;;18.80;100.00
49843;BME280;55559;48.898;9.184;2022-07-03T05:59:38;98642.53;;;18.90;100.00
49843;BME280;55559;48.898;9.184;2022-07-03T06:02:06;98645.03;;;19.07;100.00
49843;BME280;55559;48.898;9.184;2022-07-03T06:04:35;98645.13;;;19.13;100.00
49843;BME280;55559;48.898;9.184;2022-07-03T06:07:03;98646.72;;;19.23;100.00
49843;BME280;55559;48.898;9.184;2022-07-03T06:09:30;98643.34;;;19.36;100.00
49843;BME280;55559;48.898;9.184;2022-07-03T06:11:58;98642.84;;;21.05;100.00
49843;BME280;55559;48.898;9.184;2022-07-03T06:14:25;98636.53;;;23.53;95.01
49843;BME280;55559;48.898;9.184;2022-07-03T06:16:53;98634.66;;;24.74;77.74
49843;BME280;55559;48.898;9.184;2022-07-03T06:19:20;98639.22;;;25.54;72.12
49843;BME280;55559;48.898;9.184;2022-07-03T06:21:49;98639.00;;;25.37;70.18
49843;BME280;55559;48.898;9.184;2022-07-03T06:24:16;98639.91;;;25.80;68.87
49843;BME280;55559;48.898;9.184;2022-07-03T06:26:44;98641.81;;;26.10;65.74
49843;BME280;55559;48.898;9.184;2022-07-03T06:29:11;98646.28;;;26.58;63.93
49843;BME280;55559;48.898;9.184;2022-07-03T06:31:39;98637.91;;;26.71;62.94
49843;BME280;55559;48.898;9.184;2022-07-03T06:34:06;98643.81;;;26.80;62.03
49843;BME280;55559;48.898;9.184;2022-07-03T06:36:34;98638.25;;;26.75;62.28
49843;BME280;55559;48.898;9.184;2022-07-03T06:39:02;98647.09;;;26.59;62.83
49843;BME280;55559;48.898;9.184;2022-07-03T06:41:30;98648.06;;;26.64;63.13
49843;BME280;55559;48.898;9.184;2022-07-03T06:43:57;98650.91;;;26.69;62.22
49843;BME280;55559;48.898;9.184;2022-07-03T06:46:25;98649.16;;;26.87;61.27
49843;BME280;55559;48.898;9.184;2022-07-03T06:48:53;98642.69;;;27.17;60.51
49843;BME280;55559;48.898;9.184;2022-07-03T06:51:23;98649.97;;;26.99;61.68
49843;BME280;55559;48.898;9.184;2022-07-03T06:53:51;98646.44;;;26.75;61.44
49843;BME280;55559;48.898;9.184;2022-07-03T06:56:20;98644.16;;;26.96;61.28
49843;BME280;55559;48.898;9.184;2022-07-03T06:58:47;98654.25;;;26.95;60.79
49843;BME280;55559;48.898;9.184;2022-07-03T07:01:15;98652.06;;;27.21;58.41
49843;BME280;55559;48.898;9.184;2022-07-03T07:03:42;98648.78;;;27.31;56.60
49843;BME280;55559;48.898;9.184;2022-07-03T07:06:10;98651.25;;;27.32;55.69
49843;BME280;55559;48.898;9.184;2022-07-03T07:08:37;98658.50;;;27.03;58.10
49843;BME280;55559;48.898;9.184;2022-07-03T07:11:04;98653.38;;;27.30;56.11
49843;BME280;55559;48.898;9.184;2022-07-03T07:13:33;98656.09;;;27.30;56.42
49843;BME280;55559;48.898;9.184;2022-07-03T07:16:01;98660.28;;;27.09;57.28
49843;BME280;55559;48.898;9.184;2022-07-03T07:18:28;98658.25;;;27.16;56.63
49843;BME280;55559;48.898;9.184;2022-07-03T07:20:56;98657.06;;;27.76;54.44
49843;BME280;55559;48.898;9.184;2022-07-03T07:23:23;98656.59;;;26.80;58.85
49843;BME280;55559;48.898;9.184;2022-07-03T07:25:50;98662.44;;;26.71;59.68
49843;BME280;55559;48.898;9.184;2022-07-03T07:28:18;98668.59;;;27.02;57.63
49843;BME280;55559;48.898;9.184;2022-07-03T07:30:47;98657.44;;;27.04;57.58
49843;BME280;55559;48.898;9.184;2022-07-03T07:33:14;98654.16;;;26.66;58.50
49843;BME280;55559;48.898;9.184;2022-07-03T07:35:42;98666.38;;;26.33;58.68
49843;BME280;55559;48.898;9.184;2022-07-03T07:38:09;98665.97;;;26.60;56.00
49843;BME280;55559;48.898;9.184;2022-07-03T07:40:37;98663.22;;;26.60;56.10
49843;BME280;55559;48.898;9.184;2022-07-03T07:43:04;98669.28;;;26.08;59.73
49843;BME280;55559;48.898;9.184;2022-07-03T07:45:32;98674.66;;;26.27;59.71
49843;BME280;55559;48.898;9.184;2022-07-03T07:48:01;98664.91;;;26.19;60.42
49843;BME280;55559;48.898;9.184;2022-07-03T07:50:28;98666.19;;;26.05;60.41
49843;BME280;55559;48.898;9.184;2022-07-03T07:52:56;98660.97;;;26.03;62.19
49843;BME280;55559;48.898;9.184;2022-07-03T07:55:24;98664.09;;;26.18;60.23
49843;BME280;55559;48.898;9.184;2022-07-03T07:57:52;98663.63;;;25.91;60.05
49843;BME280;55559;48.898;9.184;2022-07-03T08:00:20;98661.06;;;25.96;55.45
49843;BME280;55559;48.898;9.184;2022-07-03T08:02:48;98664.94;;;25.40;57.75
49843;BME280;55559;48.898;9.184;2022-07-03T08:05:34;98656.16;;;25.38;56.30
49843;BME280;55559;48.898;9.184;2022-07-03T08:08:07;98654.28;;;25.38;56.09
49843;BME280;55559;48.898;9.184;2022-07-03T08:10:37;98661.34;;;25.21;55.53
49843;BME280;55559;48.898;9.184;2022-07-03T08:13:05;98645.19;;;25.26;54.57
49843;BME280;55559;48.898;9.184;2022-07-03T08:15:32;98644.41;;;25.56;52.77
49843;BME280;55559;48.898;9.184;2022-07-03T08:18:00;98651.47;;;25.64;51.59
49843;BME280;55559;48.898;9.184;2022-07-03T08:20:28;98647.06;;;25.93;49.86
49843;BME280;55559;48.898;9.184;2022-07-03T08:22:57;98655.84;;;25.95;45.89
49843;BME280;55559;48.898;9.184;2022-07-03T08:25:25;98649.56;;;25.94;45.83
49843;BME280;55559;48.898;9.184;2022-07-03T08:27:53;98644.97;;;25.95;45.86
49843;BME280;55559;48.898;9.184;2022-07-03T08:30:20;98641.25;;;26.20;45.17
49843;BME280;55559;48.898;9.184;2022-07-03T08:32:49;98644.78;;;26.20;45.66
49843;BME280;55559;48.898;9.184;2022-07-03T08:35:17;98649.31;;;26.26;45.26
49843;BME280;55559;48.898;9.184;2022-07-03T08:37:45;98642.69;;;26.46;44.49
49843;BME280;55559;48.898;9.184;2022-07-03T08:40:16;98638.69;;;26.60;43.23
49843;BME280;55559;48.898;9.184;2022-07-03T08:42:46;98637.00;;;26.59;44.50
49843;BME280;55559;48.898;9.184;2022-07-03T08:45:15;98639.31;;;26.74;42.53
49843;BME280;55559;48.898;9.184;2022-07-03T08:47:44;98635.63;;;26.92;42.33
49843;BME280;55559;48.898;9.184;2022-07-03T08:50:12;98634.19;;;26.66;43.05
49843;BME280;55559;48.898;9.184;2022-07-03T08:52:40;98630.75;;;26.82;43.21
49843;BME280;55559;48.898;9.184;2022-07-03T08:55:09;98630.28;;;26.62;43.55
49843;BME280;55559;48.898;9.184;2022-07-03T08:57:39;98624.84;;;26.73;42.38
49843;BME280;55559;48.898;9.184;2022-07-03T09:00:10;98621.50;;;26.95;41.48
49843;BME280;55559;48.898;9.184;2022-07-03T09:02:39;98632.66;;;26.94;41.02
49843;BME280;55559;48.898;9.184;2022-07-03T09:05:09;98628.94;;;27.00;40.91
49843;BME280;55559;48.898;9.184;2022-07-03T09:07:39;98635.09;;;27.42;40.14
49843;BME280;55559;48.898;9.184;2022-07-03T09:10:09;98637.53;;;27.56;40.12
49843;BME280;55559;48.898;9.184;2022-07-03T09:12:38;98629.56;;;27.02;39.88
49843;BME280;55559;48.898;9.184;2022-07-03T09:15:07;98626.81;;;27.14;39.50
49843;BME280;55559;48.898;9.184;2022-07-03T09:17:36;98627.56;;;26.73;39.57
49843;BME280;55559;48.898;9.184;2022-07-03T09:20:05;98632.72;;;27.34;39.17
49843;BME280;55559;48.898;9.184;2022-07-03T09:22:34;98633.84;;;27.79;38.12
49843;BME280;55559;48.898;9.184;2022-07-03T09:25:06;98633.47;;;27.87;36.86
49843;BME280;55559;48.898;9.184;2022-07-03T09:27:34;98627.81;;;28.06;37.51
49843;BME280;55559;48.898;9.184;2022-07-03T09:30:05;98627.91;;;28.11;37.90
49843;BME280;55559;48.898;9.184;2022-07-03T09:32:40;98630.63;;;28.11;38.41
49843;BME280;55559;48.898;9.184;2022-07-03T09:35:16;98635.63;;;27.85;38.56
49843;BME280;55559;48.898;9.184;2022-07-03T09:37:48;98628.56;;;28.35;38.52
49843;BME280;55559;48.898;9.184;2022-07-03T09:40:17;98623.00;;;28.47;38.50
49843;BME280;55559;48.898;9.184;2022-07-03T09:43:02;98631.56;;;27.88;37.80
49843;BME280;55559;48.898;9.184;2022-07-03T09:45:53;98624.84;;;28.41;38.12
49843;BME280;55559;48.898;9.184;2022-07-03T09:48:22;98618.88;;;28.78;38.04
49843;BME280;55559;48.898;9.184;2022-07-03T09:50:49;98622.84;;;28.87;37.42
49843;BME280;55559;48.898;9.184;2022-07-03T09:53:44;98621.00;;;28.93;38.01
49843;BME280;55559;48.898;9.184;2022-07-03T09:56:11;98618.03;;;28.94;38.42
49843;BME280;55559;48.898;9.184;2022-07-03T09:58:39;98621.13;;;27.84;40.47
49843;BME280;55559;48.898;9.184;2022-07-03T10:01:18;98610.53;;;27.88;40.32
49843;BME280;55559;48.898;9.184;2022-07-03T10:03:47;98608.59;;;28.34;39.73
49843;BME280;55559;48.898;9.184;2022-07-03T10:06:14;98619.22;;;28.65;37.75
49843;BME280;55559;48.898;9.184;2022-07-03T10:08:42;98613.41;;;29.17;37.46
49843;BME280;55559;48.898;9.184;2022-07-03T10:11:10;98619.88;;;29.11;36.41
49843;BME280;55559;48.898;9.184;2022-07-03T10:13:38;98612.38;;;29.45;35.62
49843;BME280;55559;48.898;9.184;2022-07-03T10:16:07;98606.50;;;29.15;36.59
49843;BME280;55559;48.898;9.184;2022-07-03T10:18:36;98609.09;;;28.48;39.43
49843;BME280;55559;48.898;9.184;2022-07-03T10:21:06;98604.84;;;29.13;40.69
49843;BME280;55559;48.898;9.184;2022-07-03T10:23:34;98604.59;;;27.91;41.15
49843;BME280;55559;48.898;9.184;2022-07-03T10:26:02;98607.06;;;28.55;40.00
49843;BME280;55559;48.898;9.184;2022-07-03T10:28:30;98602.81;;;28.65;39.22
49843;BME280;55559;48.898;9.184;2022-07-03T10:30:59;98607.00;;;28.89;40.16
49843;BME280;55559;48.898;9.184;2022-07-03T10:33:27;98604.75;;;28.86;37.54
49843;BME280;55559;48.898;9.184;2022-07-03T10:35:59;98608.50;;;29.19;36.97
49843;BME280;55559;48.898;9.184;2022-07-03T10:38:36;98605.56;;;29.26;37.53
49843;BME280;55559;48.898;9.184;2022-07-03T10:41:11;98601.69;;;29.71;36.13
49843;BME280;55559;48.898;9.184;2022-07-03T10:43:56;98610.66;;;29.83;36.03
49843;BME280;55559;48.898;9.184;2022-07-03T10:46:47;98599.00;;;30.03;35.68
49843;BME280;55559;48.898;9.184;2022-07-03T10:49:14;98611.22;;;29.63;36.30
49843;BME280;55559;48.898;9.184;2022-07-03T10:51:55;98593.78;;;30.02;35.95
49843;BME280;55559;48.898;9.184;2022-07-03T10:54:24;98595.38;;;30.63;36.00
49843;BME280;55559;48.898;9.184;2022-07-03T10:57:14;98592.63;;;30.25;35.34
49843;BME280;55559;48.898;9.184;2022-07-03T11:00:00;98595.19;;;30.04;35.53
49843;BME280;55559;48.898;9.184;2022-07-03T11:02:32;98595.50;;;29.54;35.16
49843;BME280;55559;48.898;9.184;2022-07-03T11:05:26;98599.34;;;29.30;36.25
49843;BME280;55559;48.898;9.184;2022-07-03T11:08:08;98589.97;;;29.04;36.27
49843;BME280;55559;48.898;9.184;2022-07-03T11:10:38;98592.66;;;29.21;36.80
49843;BME280;55559;48.898;9.184;2022-07-03T11:13:13;98579.66;;;29.83;35.59
49843;BME280;55559;48.898;9.184;2022-07-03T11:15:44;98593.41;;;29.88;34.71
49843;BME280;55559;48.898;9.184;2022-07-03T11:18:21;98583.84;;;29.91;34.79
49843;BME280;55559;48.898;9.184;2022-07-03T11:24:18;98573.41;;;29.65;34.80
49843;BME280;55559;48.898;9.184;2022-07-03T11:27:13;98578.28;;;29.58;35.58
49843;BME280;55559;48.898;9.184;2022-07-03T11:29:41;98568.25;;;29.96;35.01
49843;BME280;55559;48.898;9.184;2022-07-03T11:32:43;98572.81;;;30.50;34.54
49843;BME280;55559;48.898;9.184;2022-07-03T11:38:14;98573.56;;;30.40;34.27
49843;BME280;55559;48.898;9.184;2022-07-03T11:40:45;98562.47;;;30.30;34.07
49843;BME280;55559;48.898;9.184;2022-07-03T11:43:14;98557.84;;;30.68;33.83
49843;BME280;55559;48.898;9.184;2022-07-03T11:45:42;98562.97;;;30.22;34.87
49843;BME280;55559;48.898;9.184;2022-07-03T11:48:12;98560.47;;;30.20;34.23
49843;BME280;55559;48.898;9.184;2022-07-03T11:50:41;98559.22;;;29.68;35.02
49843;BME280;55559;48.898;9.184;2022-07-03T11:53:22;98556.63;;;29.84;35.32
49843;BME280;55559;48.898;9.184;2022-07-03T11:55:54;98555.06;;;29.66;35.92
49843;BME280;55559;48.898;9.184;2022-07-03T11:58:23;98549.44;;;30.10;34.11
49843;BME280;55559;48.898;9.184;2022-07-03T12:00:51;98547.66;;;30.69;34.58
49843;BME280;55559;48.898;9.184;2022-07-03T12:03:24;98559.78;;;29.43;34.88
49843;BME280;55559;48.898;9.184;2022-07-03T12:05:53;98552.00;;;29.62;35.35
49843;BME280;55559;48.898;9.184;2022-07-03T12:08:23;98545.59;;;30.06;35.32
49843;BME280;55559;48.898;9.184;2022-07-03T12:10:56;98545.47;;;29.63;34.49
49843;BME280;55559;48.898;9.184;2022-07-03T12:13:24;98543.44;;;30.13;34.10
49843;BME280;55559;48.898;9.184;2022-07-03T12:15:53;98538.97;;;30.82;34.43
49843;BME280;55559;48.898;9.184;2022-07-03T12:18:21;98539.56;;;30.41;34.00
49843;BME280;55559;48.898;9.184;2022-07-03T12:20:48;98541.50;;;30.14;33.77
49843;BME280;55559;48.898;9.184;2022-07-03T12:23:15;98536.13;;;30.62;35.57
49843;BME280;55559;48.898;9.184;2022-07-03T12:25:43;98537.19;;;30.60;34.15
49843;BME280;55559;48.898;9.184;2022-07-03T12:28:12;98539.41;;;31.22;33.01
49843;BME280;55559;48.898;9.184;2022-07-03T12:30:39;98540.28;;;30.74;33.50
49843;BME280;55559;48.898;9.184;2022-07-03T12:33:07;98526.94;;;30.46;35.21
49843;BME280;55559;48.898;9.184;2022-07-03T12:35:34;98517.44;;;31.22;32.66
49843;BME280;55559;48.898;9.184;2022-07-03T12:38:02;98519.66;;;30.67;33.73
49843;BME280;55559;48.898;9.184;2022-07-03T12:40:30;98516.63;;;30.63;35.25
49843;BME280;55559;48.898;9.184;2022-07-03T12:42:57;98512.00;;;31.32;32.68
49843;BME280;55559;48.898;9.184;2022-07-03T12:45:27;98518.75;;;30.51;34.11
49843;BME280;55559;48.898;9.184;2022-07-03T12:47:59;98525.38;;;30.55;34.30
49843;BME280;55559;48.898;9.184;2022-07-03T12:53:09;98516.69;;;29.93;35.28
49843;BME280;55559;48.898;9.184;2022-07-03T12:55:44;98512.16;;;30.47;35.26
49843;BME280;55559;48.898;9.184;2022-07-03T12:58:14;98509.50;;;30.67;34.57
49843;BME280;55559;48.898;9.184;2022-07-03T13:01:00;98515.56;;;30.27;35.42
49843;BME280;55559;48.898;9.184;2022-07-03T13:03:29;98512.41;;;30.45;35.94
49843;BME280;55559;48.898;9.184;2022-07-03T13:05:57;98502.59;;;30.17;34.59
49843;BME280;55559;48.898;9.184;2022-07-03T13:08:24;98508.66;;;30.19;34.29
49843;BME280;55559;48.898;9.184;2022-07-03T13:10:55;98499.28;;;30.52;33.11
49843;BME280;55559;48.898;9.184;2022-07-03T13:13:23;98494.56;;;30.95;33.42
49843;BME280;55559;48.898;9.184;2022-07-03T13:15:51;98501.19;;;30.47;33.69
49843;BME280;55559;48.898;9.184;2022-07-03T13:18:20;98503.00;;;30.84;34.22
49843;BME280;55559;48.898;9.184;2022-07-03T13:20:47;98487.25;;;30.58;34.35
49843;BME280;55559;48.898;9.184;2022-07-03T13:23:16;98493.06;;;30.72;35.27